createdAt,value
2023-01-15T00:01:04.260Z,8.60
2023-01-15T00:03:33.342Z,8.60
2023-01-15T00:06:03.465Z,8.70
2023-01-15T00:08:32.765Z,8.70
2023-01-15T00:11:04.779Z,8.70
2023-01-15T00:13:32.732Z,8.80
2023-01-15T00:16:05.473Z,8.80
2023-01-15T00:18:33.746Z,8.80
2023-01-15T00:21:02.663Z,8.80
2023-01-15T00:23:48.390Z,8.80
2023-01-15T00:26:36.511Z,8.80
2023-01-15T00:29:04.913Z,8.80
2023-01-15T00:31:35.672Z,8.80
2023-01-15T00:34:03.792Z,8.80
2023-01-15T00:36:32.969Z,8.80
2023-01-15T00:39:00.885Z,8.80
2023-01-15T00:41:30.096Z,8.80
2023-01-15T00:43:58.072Z,8.80
2023-01-15T00:46:26.142Z,8.80
2023-01-15T00:48:54.223Z,8.80
2023-01-15T00:51:23.483Z,8.90
2023-01-15T00:53:51.416Z,8.90
2023-01-15T00:56:19.386Z,8.90
2023-01-15T00:58:48.806Z,8.90
2023-01-15T01:01:17.590Z,9.00
2023-01-15T01:03:48.792Z,9.00
2023-01-15T01:06:18.573Z,9.00
2023-01-15T01:08:46.855Z,8.90
2023-01-15T01:11:17.643Z,9.00
2023-01-15T01:13:49.068Z,8.90
2023-01-15T01:16:33.362Z,8.90
2023-01-15T01:19:04.585Z,8.90
2023-01-15T01:21:32.889Z,8.90
2023-01-15T01:24:02.053Z,8.90
2023-01-15T01:26:31.138Z,8.80
2023-01-15T01:29:00.382Z,8.90
2023-01-15T01:31:28.786Z,8.90
2023-01-15T01:33:59.801Z,8.90
2023-01-15T01:36:32.643Z,8.90
2023-01-15T01:39:02.125Z,8.90
2023-01-15T01:41:30.636Z,8.90
2023-01-15T01:44:03.351Z,8.90
2023-01-15T01:46:34.659Z,8.90
2023-01-15T01:49:09.071Z,8.90
2023-01-15T01:51:41.943Z,8.90
2023-01-15T01:54:14.173Z,9.00
2023-01-15T01:56:42.976Z,8.90
2023-01-15T01:59:13.253Z,9.00
2023-01-15T02:01:41.352Z,9.00
2023-01-15T02:04:11.184Z,8.90
2023-01-15T02:06:43.431Z,9.00
2023-01-15T02:09:11.564Z,9.00
2023-01-15T02:11:39.720Z,9.00
2023-01-15T02:14:16.988Z,9.00
2023-01-15T02:16:54.044Z,9.00
2023-01-15T02:19:41.682Z,9.00
2023-01-15T02:22:25.594Z,9.00
2023-01-15T02:25:09.157Z,9.10
2023-01-15T02:27:44.712Z,9.10
2023-01-15T02:30:22.907Z,9.10
2023-01-15T02:33:00.948Z,9.10
2023-01-15T02:35:35.300Z,9.20
2023-01-15T02:38:12.039Z,9.20
2023-01-15T02:40:43.766Z,9.20
2023-01-15T02:43:16.661Z,9.20
2023-01-15T02:45:50.365Z,9.20
2023-01-15T02:48:24.350Z,9.30
2023-01-15T02:50:59.965Z,9.30
2023-01-15T02:53:32.128Z,9.30
2023-01-15T02:56:10.429Z,9.30
2023-01-15T02:58:53.160Z,9.40
2023-01-15T03:01:31.464Z,9.30
2023-01-15T03:04:09.862Z,9.40
2023-01-15T03:06:43.965Z,9.40
2023-01-15T03:09:15.677Z,9.40
2023-01-15T03:11:52.345Z,9.40
2023-01-15T03:14:29.591Z,9.40
2023-01-15T03:17:02.486Z,9.40
2023-01-15T03:19:43.080Z,9.40
2023-01-15T03:22:24.356Z,9.40
2023-01-15T03:24:56.622Z,9.40
2023-01-15T03:27:25.523Z,9.50
2023-01-15T03:30:05.148Z,9.50
2023-01-15T03:32:33.940Z,9.50
2023-01-15T03:35:04.024Z,9.50
2023-01-15T03:37:33.591Z,9.60
2023-01-15T03:40:04.485Z,9.50
2023-01-15T03:43:15.819Z,9.60
2023-01-15T03:45:49.489Z,9.50
2023-01-15T03:48:26.033Z,9.50
2023-01-15T03:51:07.003Z,9.50
2023-01-15T03:53:43.008Z,9.60
2023-01-15T03:56:22.419Z,9.60
2023-01-15T03:58:59.241Z,9.60
2023-01-15T04:01:45.236Z,9.60
2023-01-15T04:04:15.836Z,9.60
2023-01-15T04:06:46.279Z,9.60
2023-01-15T04:09:16.361Z,9.60
2023-01-15T04:11:47.086Z,9.60
2023-01-15T04:14:16.021Z,9.60
2023-01-15T04:16:54.953Z,9.60
2023-01-15T04:19:25.713Z,9.60
2023-01-15T04:22:03.706Z,9.60
2023-01-15T04:24:31.598Z,9.60
2023-01-15T04:26:59.504Z,9.60
2023-01-15T04:29:27.459Z,9.70
2023-01-15T04:31:57.762Z,9.70
2023-01-15T04:34:27.175Z,9.70
2023-01-15T04:36:55.422Z,9.70
2023-01-15T04:39:23.859Z,9.70
2023-01-15T04:42:09.736Z,9.70
2023-01-15T04:44:39.519Z,9.60
2023-01-15T04:47:08.829Z,9.60
2023-01-15T04:49:36.965Z,9.60
2023-01-15T04:52:05.727Z,9.60
2023-01-15T04:54:33.829Z,9.60
2023-01-15T04:57:01.923Z,9.60
2023-01-15T04:59:29.832Z,9.60
2023-01-15T05:02:05.049Z,9.60
2023-01-15T05:04:36.175Z,9.60
2023-01-15T05:07:06.059Z,9.50
2023-01-15T05:09:34.518Z,9.50
2023-01-15T05:12:03.027Z,9.50
2023-01-15T05:14:31.118Z,9.50
2023-01-15T05:16:58.991Z,9.50
2023-01-15T05:19:27.021Z,9.50
2023-01-15T05:21:56.324Z,9.50
2023-01-15T05:24:24.253Z,9.50
2023-01-15T05:26:52.168Z,9.50
2023-01-15T05:29:20.112Z,9.50
2023-01-15T05:31:48.077Z,9.50
2023-01-15T05:34:16.357Z,9.60
2023-01-15T05:36:44.273Z,9.60
2023-01-15T05:39:13.524Z,9.60
2023-01-15T05:41:51.070Z,9.60
2023-01-15T05:44:23.007Z,9.60
2023-01-15T05:46:53.789Z,9.60
2023-01-15T05:49:25.859Z,9.60
2023-01-15T05:51:55.682Z,9.60
2023-01-15T05:54:29.747Z,9.60
2023-01-15T05:56:58.556Z,9.60
2023-01-15T05:59:30.061Z,9.50
2023-01-15T06:01:58.328Z,9.50
2023-01-15T06:04:26.890Z,9.50
2023-01-15T06:06:56.742Z,9.50
2023-01-15T06:09:28.077Z,9.40
2023-01-15T06:11:56.327Z,9.40
2023-01-15T06:14:24.584Z,9.40
2023-01-15T06:16:52.613Z,9.50
2023-01-15T06:19:20.881Z,9.60
2023-01-15T06:21:49.101Z,9.50
2023-01-15T06:24:17.908Z,9.50
2023-01-15T06:26:47.535Z,9.30
2023-01-15T06:29:18.761Z,9.20
2023-01-15T06:31:47.939Z,9.10
2023-01-15T06:34:15.972Z,9.00
2023-01-15T06:36:43.934Z,8.90
2023-01-15T06:39:11.922Z,8.60
2023-01-15T06:41:57.461Z,8.50
2023-01-15T06:44:44.205Z,8.40
2023-01-15T06:47:22.661Z,8.50
2023-01-15T06:49:53.225Z,8.40
2023-01-15T06:52:21.279Z,8.30
2023-01-15T06:54:49.217Z,8.30
2023-01-15T06:57:18.992Z,8.10
2023-01-15T06:59:48.498Z,8.10
2023-01-15T07:02:17.935Z,8.10
2023-01-15T07:04:46.215Z,8.00
2023-01-15T07:07:14.565Z,8.00
2023-01-15T07:09:42.495Z,8.00
2023-01-15T07:12:10.407Z,8.00
2023-01-15T07:14:38.822Z,7.90
2023-01-15T07:17:08.376Z,7.90
2023-01-15T07:19:40.373Z,7.90
2023-01-15T07:22:10.671Z,7.80
2023-01-15T07:24:38.651Z,7.70
2023-01-15T07:27:07.308Z,7.70
2023-01-15T07:29:35.650Z,7.60
2023-01-15T07:32:03.616Z,7.60
2023-01-15T07:34:32.915Z,7.60
2023-01-15T07:37:00.984Z,7.60
2023-01-15T07:39:31.514Z,7.60
2023-01-15T07:42:17.029Z,7.60
2023-01-15T07:45:04.208Z,7.50
2023-01-15T07:47:49.805Z,7.50
2023-01-15T07:50:22.061Z,7.50
2023-01-15T07:52:52.934Z,7.50
2023-01-15T07:55:22.613Z,7.50
2023-01-15T07:57:50.755Z,7.40
2023-01-15T08:00:23.674Z,7.40
2023-01-15T08:02:52.199Z,7.40
2023-01-15T08:05:21.896Z,7.40
2023-01-15T08:07:50.462Z,7.30
2023-01-15T08:10:19.605Z,7.30
2023-01-15T08:13:08.634Z,7.30
2023-01-15T08:15:42.875Z,7.20
2023-01-15T08:18:11.259Z,7.10
2023-01-15T08:20:40.638Z,7.10
2023-01-15T08:23:10.571Z,7.20
2023-01-15T08:25:38.579Z,7.10
2023-01-15T08:28:06.882Z,7.10
2023-01-15T08:30:35.013Z,7.10
2023-01-15T08:33:03.712Z,7.10
2023-01-15T08:35:32.109Z,7.20
2023-01-15T08:38:06.641Z,7.20
2023-01-15T08:40:36.156Z,7.30
2023-01-15T08:43:04.269Z,7.40
2023-01-15T08:45:32.400Z,7.30
2023-01-15T08:48:00.498Z,7.10
2023-01-15T08:50:28.553Z,6.90
2023-01-15T08:52:56.611Z,6.80
2023-01-15T08:55:25.990Z,6.80
2023-01-15T08:57:54.091Z,6.70
2023-01-15T09:00:24.493Z,6.50
2023-01-15T09:02:53.236Z,6.50
2023-01-15T09:05:21.259Z,6.50
2023-01-15T09:07:49.290Z,6.50
2023-01-15T09:10:18.763Z,6.50
2023-01-15T09:12:48.206Z,6.40
2023-01-15T09:15:16.313Z,6.30
2023-01-15T09:17:44.378Z,6.20
2023-01-15T09:20:15.248Z,6.20
2023-01-15T09:22:43.637Z,6.20
2023-01-15T09:25:11.869Z,6.20
2023-01-15T09:27:39.786Z,6.20
2023-01-15T09:30:15.361Z,6.20
2023-01-15T09:32:43.354Z,6.20
2023-01-15T09:35:11.534Z,6.20
2023-01-15T09:37:39.507Z,6.20
2023-01-15T09:40:19.862Z,6.20
2023-01-15T09:42:56.345Z,6.20
2023-01-15T09:45:32.252Z,6.20
2023-01-15T09:48:23.666Z,6.20
2023-01-15T09:51:11.283Z,6.20
2023-01-15T09:53:59.334Z,6.20
2023-01-15T09:56:32.809Z,6.10
2023-01-15T09:59:10.842Z,6.00
2023-01-15T10:01:41.180Z,5.90
2023-01-15T10:04:19.066Z,5.90
2023-01-15T10:06:58.551Z,5.80
2023-01-15T10:09:37.487Z,5.80
2023-01-15T10:12:34.510Z,5.80
2023-01-15T10:15:16.079Z,5.80
2023-01-15T10:17:48.793Z,5.80
2023-01-15T10:20:29.830Z,5.90
2023-01-15T10:23:26.911Z,5.80
2023-01-15T10:26:04.270Z,5.70
2023-01-15T10:28:48.252Z,5.70
2023-01-15T10:31:22.495Z,5.60
2023-01-15T10:34:11.912Z,5.60
2023-01-15T10:36:45.367Z,5.70
2023-01-15T10:39:24.763Z,5.70
2023-01-15T10:42:12.688Z,5.70
2023-01-15T10:44:56.021Z,5.60
2023-01-15T10:47:36.233Z,5.60
2023-01-15T10:50:19.025Z,5.50
2023-01-15T10:52:51.906Z,5.60
2023-01-15T10:55:28.155Z,5.60
2023-01-15T10:58:10.345Z,5.60
2023-01-15T11:00:40.440Z,5.60
2023-01-15T11:03:18.240Z,5.60
2023-01-15T11:05:47.836Z,5.70
2023-01-15T11:09:07.906Z,5.60
2023-01-15T11:11:44.519Z,5.70
2023-01-15T11:14:30.257Z,5.70
2023-01-15T11:17:16.448Z,5.70
2023-01-15T11:19:45.195Z,5.70
2023-01-15T11:22:18.819Z,5.60
2023-01-15T11:24:51.183Z,5.60
2023-01-15T11:27:23.632Z,5.60
2023-01-15T11:29:57.915Z,5.60
2023-01-15T11:32:31.016Z,5.60
2023-01-15T11:35:02.260Z,5.60
2023-01-15T11:37:32.285Z,5.60
2023-01-15T11:40:07.989Z,5.70
2023-01-15T11:42:56.121Z,5.70
2023-01-15T11:45:43.649Z,5.70
2023-01-15T11:48:40.902Z,5.70
2023-01-15T11:51:11.802Z,5.70
2023-01-15T11:53:46.988Z,5.80
2023-01-15T11:56:18.221Z,5.80
2023-01-15T11:58:50.134Z,5.80
2023-01-15T12:01:26.276Z,5.70
2023-01-15T12:03:55.242Z,5.70
2023-01-15T12:06:25.196Z,5.80
2023-01-15T12:09:06.873Z,5.80
2023-01-15T12:12:01.274Z,5.70
2023-01-15T12:14:57.731Z,5.80
2023-01-15T12:18:04.953Z,5.80
2023-01-15T12:20:54.964Z,5.70
2023-01-15T12:23:55.927Z,5.70
2023-01-15T12:26:29.252Z,5.70
2023-01-15T12:29:13.244Z,5.70
2023-01-15T12:31:48.413Z,5.70
2023-01-15T12:34:23.928Z,5.70
2023-01-15T12:36:58.598Z,5.70
2023-01-15T12:39:31.532Z,5.60
2023-01-15T12:42:24.021Z,5.70
2023-01-15T12:45:04.431Z,5.70
2023-01-15T12:47:43.037Z,5.70
2023-01-15T12:50:30.656Z,5.60
2023-01-15T12:53:07.125Z,5.60
2023-01-15T12:55:42.765Z,5.60
2023-01-15T12:58:24.784Z,5.60
2023-01-15T13:01:05.161Z,5.60
2023-01-15T13:03:52.114Z,5.50
2023-01-15T13:06:24.235Z,5.50
2023-01-15T13:09:05.602Z,5.50
2023-01-15T13:11:34.178Z,5.40
2023-01-15T13:14:03.521Z,5.40
2023-01-15T13:16:45.954Z,5.30
2023-01-15T13:19:33.284Z,5.30
2023-01-15T13:22:08.087Z,5.30
2023-01-15T13:25:17.784Z,5.30
2023-01-15T13:28:10.072Z,5.20
2023-01-15T13:31:03.628Z,5.20
2023-01-15T13:33:41.746Z,5.20
2023-01-15T13:36:18.812Z,5.20
2023-01-15T13:38:52.944Z,5.10
2023-01-15T13:41:40.621Z,5.10
2023-01-15T13:44:19.054Z,5.10
2023-01-15T13:46:59.979Z,5.10
2023-01-15T13:49:36.771Z,5.10
2023-01-15T13:52:10.842Z,5.10
2023-01-15T13:54:43.404Z,5.10
2023-01-15T13:57:24.344Z,5.10
2023-01-15T13:59:53.298Z,5.10
2023-01-15T14:02:29.753Z,5.10
2023-01-15T14:04:58.850Z,5.10
2023-01-15T14:07:35.738Z,5.10
2023-01-15T14:10:36.177Z,5.10
2023-01-15T14:13:42.734Z,5.10
2023-01-15T14:16:36.407Z,4.90
2023-01-15T14:19:34.774Z,4.90
2023-01-15T14:22:38.620Z,4.90
2023-01-15T14:25:41.602Z,4.90
2023-01-15T14:28:37.684Z,4.90
2023-01-15T14:31:29.616Z,4.90
2023-01-15T14:34:17.242Z,4.80
2023-01-15T14:36:57.657Z,4.90
2023-01-15T14:39:35.269Z,4.90
2023-01-15T14:42:29.435Z,4.90
2023-01-15T14:45:06.584Z,4.80
2023-01-15T14:47:46.352Z,4.80
2023-01-15T14:50:33.517Z,4.80
2023-01-15T14:53:18.313Z,4.80
2023-01-15T14:55:51.206Z,4.80
2023-01-15T14:58:37.437Z,4.80
2023-01-15T15:01:26.259Z,4.80
2023-01-15T15:04:01.849Z,4.80
2023-01-15T15:06:31.322Z,4.80
2023-01-15T15:09:05.507Z,4.80
2023-01-15T15:11:58.499Z,4.80
2023-01-15T15:14:29.875Z,4.80
2023-01-15T15:17:02.093Z,4.70
2023-01-15T15:19:39.390Z,4.70
2023-01-15T15:22:14.018Z,4.70
2023-01-15T15:24:49.425Z,4.70
2023-01-15T15:27:18.645Z,4.60
2023-01-15T15:29:47.857Z,4.60
2023-01-15T15:32:19.842Z,4.60
2023-01-15T15:34:54.497Z,4.50
2023-01-15T15:37:27.412Z,4.50
2023-01-15T15:40:03.040Z,4.50
2023-01-15T15:42:54.630Z,4.50
2023-01-15T15:45:43.913Z,4.50
2023-01-15T15:48:35.786Z,4.50
2023-01-15T15:51:05.053Z,4.50
2023-01-15T15:53:33.325Z,4.40
2023-01-15T15:56:03.362Z,4.50
2023-01-15T15:58:36.092Z,4.40
2023-01-15T16:01:04.665Z,4.50
2023-01-15T16:03:34.600Z,4.50
2023-01-15T16:06:05.811Z,4.50
2023-01-15T16:08:37.138Z,4.50
2023-01-15T16:11:11.941Z,4.50
2023-01-15T16:13:45.848Z,4.50
2023-01-15T16:16:16.698Z,4.50
2023-01-15T16:18:48.259Z,4.50
2023-01-15T16:21:21.087Z,4.50
2023-01-15T16:23:58.027Z,4.50
2023-01-15T16:26:36.748Z,4.60
2023-01-15T16:29:15.704Z,4.60
2023-01-15T16:31:43.755Z,4.60
2023-01-15T16:34:20.685Z,4.70
2023-01-15T16:36:49.118Z,4.70
2023-01-15T16:39:26.064Z,4.70
2023-01-15T16:41:59.201Z,4.70
2023-01-15T16:44:37.666Z,4.70
2023-01-15T16:47:06.942Z,4.70
2023-01-15T16:49:35.768Z,4.70
2023-01-15T16:52:24.707Z,4.70
2023-01-15T16:54:52.809Z,4.70
2023-01-15T16:57:34.679Z,4.70
2023-01-15T17:00:08.005Z,4.60
2023-01-15T17:02:46.675Z,4.60
2023-01-15T17:05:24.337Z,4.50
2023-01-15T17:07:55.731Z,4.60
2023-01-15T17:10:28.356Z,4.50
2023-01-15T17:12:57.723Z,4.50
2023-01-15T17:15:39.253Z,4.50
2023-01-15T17:18:29.025Z,4.50
2023-01-15T17:20:57.436Z,4.50
2023-01-15T17:23:31.184Z,4.50
2023-01-15T17:25:59.569Z,4.50
2023-01-15T17:28:29.204Z,4.60
2023-01-15T17:31:03.740Z,4.60
2023-01-15T17:33:31.756Z,4.60
2023-01-15T17:36:01.242Z,4.60
2023-01-15T17:38:29.307Z,4.60
2023-01-15T17:41:00.736Z,4.60
2023-01-15T17:43:30.321Z,4.60
2023-01-15T17:45:59.992Z,4.60
2023-01-15T17:48:28.248Z,4.60
2023-01-15T17:50:56.296Z,4.60
2023-01-15T17:53:24.664Z,4.70
2023-01-15T17:56:10.353Z,4.70
2023-01-15T17:58:57.222Z,4.70
2023-01-15T18:01:46.190Z,4.70
2023-01-15T18:04:39.017Z,4.70
2023-01-15T18:07:07.409Z,4.70
2023-01-15T18:09:37.848Z,4.70
2023-01-15T18:12:07.014Z,4.70
2023-01-15T18:14:36.371Z,4.70
2023-01-15T18:17:04.464Z,4.70
2023-01-15T18:19:32.711Z,4.70
2023-01-15T18:22:00.740Z,4.80
2023-01-15T18:24:28.742Z,4.80
2023-01-15T18:26:56.747Z,4.80
2023-01-15T18:29:24.824Z,4.80
2023-01-15T18:31:54.148Z,4.80
2023-01-15T18:34:22.220Z,4.80
2023-01-15T18:36:52.914Z,4.80
2023-01-15T18:39:20.876Z,4.80
2023-01-15T18:42:06.448Z,4.80
2023-01-15T18:44:52.064Z,4.90
2023-01-15T18:47:21.536Z,4.80
2023-01-15T18:49:53.805Z,4.80
2023-01-15T18:52:39.614Z,4.90
2023-01-15T18:55:08.326Z,4.90
2023-01-15T18:57:36.257Z,4.90
2023-01-15T19:00:06.145Z,4.90
2023-01-15T19:02:36.075Z,4.90
2023-01-15T19:05:04.104Z,4.90
2023-01-15T19:07:34.182Z,4.90
2023-01-15T19:10:03.063Z,4.90
2023-01-15T19:12:31.872Z,4.80
2023-01-15T19:15:17.484Z,4.90
2023-01-15T19:18:04.299Z,4.90
2023-01-15T19:20:32.438Z,4.80
2023-01-15T19:22:59.563Z,4.80
2023-01-15T19:25:29.781Z,4.80
2023-01-15T19:27:59.078Z,4.80
2023-01-15T19:30:28.893Z,4.80
2023-01-15T19:32:58.328Z,4.80
2023-01-15T19:35:26.321Z,4.90
2023-01-15T19:37:55.120Z,4.90
2023-01-15T19:40:24.505Z,4.90
2023-01-15T19:43:11.011Z,4.90
2023-01-15T19:46:11.435Z,4.90
2023-01-15T19:48:58.600Z,4.90
2023-01-15T19:51:47.662Z,4.90
2023-01-15T19:54:36.182Z,4.90
2023-01-15T19:57:04.136Z,4.90
2023-01-15T19:59:32.186Z,4.80
2023-01-15T20:02:03.402Z,4.80
2023-01-15T20:04:32.661Z,4.80
2023-01-15T20:07:00.628Z,4.80
2023-01-15T20:09:28.557Z,4.90
2023-01-15T20:12:14.251Z,4.90
2023-01-15T20:14:42.146Z,4.90
2023-01-15T20:17:11.277Z,4.90
2023-01-15T20:19:40.689Z,4.90
2023-01-15T20:22:08.698Z,4.90
2023-01-15T20:24:41.976Z,4.80
2023-01-15T20:27:10.295Z,4.70
2023-01-15T20:29:38.270Z,4.70
2023-01-15T20:32:07.027Z,4.70
2023-01-15T20:34:38.387Z,4.70
2023-01-15T20:37:08.293Z,4.70
2023-01-15T20:39:36.279Z,4.70
2023-01-15T20:42:22.247Z,4.70
2023-01-15T20:44:56.360Z,4.60
2023-01-15T20:47:44.750Z,4.60
2023-01-15T20:50:16.525Z,4.60
2023-01-15T20:52:49.277Z,4.60
2023-01-15T20:55:19.004Z,4.60
2023-01-15T20:57:48.628Z,4.50
2023-01-15T21:00:19.693Z,4.50
2023-01-15T21:02:47.852Z,4.50
2023-01-15T21:05:16.493Z,4.50
2023-01-15T21:07:44.426Z,4.60
2023-01-15T21:10:14.839Z,4.60
2023-01-15T21:12:42.954Z,4.50
2023-01-15T21:15:12.250Z,4.60
2023-01-15T21:17:41.041Z,4.60
2023-01-15T21:20:13.096Z,4.50
2023-01-15T21:22:41.388Z,4.50
2023-01-15T21:25:13.128Z,4.50
2023-01-15T21:27:42.447Z,4.40
2023-01-15T21:30:12.200Z,4.40
2023-01-15T21:32:40.137Z,4.50
2023-01-15T21:35:08.842Z,4.50
2023-01-15T21:37:36.895Z,4.50
2023-01-15T21:40:05.875Z,4.50
2023-01-15T21:42:51.262Z,4.50
2023-01-15T21:45:21.299Z,4.40
2023-01-15T21:47:49.238Z,4.40
2023-01-15T21:50:18.071Z,4.40
2023-01-15T21:52:45.959Z,4.40
2023-01-15T21:55:13.920Z,4.50
2023-01-15T21:57:42.005Z,4.50
2023-01-15T22:00:13.104Z,4.40
2023-01-15T22:02:42.353Z,4.40
2023-01-15T22:05:11.161Z,4.40
2023-01-15T22:07:39.059Z,4.40
2023-01-15T22:10:08.279Z,4.40
2023-01-15T22:12:41.919Z,4.50
2023-01-15T22:15:11.508Z,4.50
2023-01-15T22:17:42.199Z,4.50
2023-01-15T22:20:12.571Z,4.50
2023-01-15T22:22:40.482Z,4.50
2023-01-15T22:25:13.027Z,4.50
2023-01-15T22:27:42.390Z,4.50
2023-01-15T22:30:12.932Z,4.60
2023-01-15T22:32:40.960Z,4.60
2023-01-15T22:35:11.600Z,4.60
2023-01-15T22:37:39.505Z,4.60
2023-01-15T22:40:09.842Z,4.60
2023-01-15T22:42:37.735Z,4.60
2023-01-15T22:45:06.715Z,4.60
2023-01-15T22:47:34.614Z,4.60
2023-01-15T22:50:02.499Z,4.60
2023-01-15T22:52:34.063Z,4.60
2023-01-15T22:55:02.111Z,4.60
2023-01-15T22:57:31.177Z,4.60
2023-01-15T22:59:59.498Z,4.60
2023-01-15T23:02:41.334Z,4.60
2023-01-15T23:05:10.581Z,4.60
2023-01-15T23:07:41.531Z,4.60
2023-01-15T23:10:12.548Z,4.60
2023-01-15T23:12:41.383Z,4.60
2023-01-15T23:15:13.332Z,4.50
2023-01-15T23:17:41.798Z,4.50
2023-01-15T23:20:14.840Z,4.50
2023-01-15T23:22:46.845Z,4.50
2023-01-15T23:25:14.766Z,4.50
2023-01-15T23:27:42.712Z,4.50
2023-01-15T23:30:12.197Z,4.50
2023-01-15T23:32:40.592Z,4.50
2023-01-15T23:35:10.003Z,4.50
2023-01-15T23:37:38.095Z,4.40
2023-01-15T23:40:09.921Z,4.50
2023-01-15T23:42:55.162Z,4.40
2023-01-15T23:45:40.721Z,4.40
2023-01-15T23:48:08.639Z,4.30
2023-01-15T23:50:36.675Z,4.30
2023-01-15T23:53:05.482Z,4.20
2023-01-15T23:55:34.703Z,4.20
2023-01-15T23:58:02.701Z,4.20
